Sugartown, Louisiana
Current Conditions -  °F | °C
As of 2:54 AM on Monday 22 Dec 2014 (Local Time) from KBKB Reporting Station
Haze Haze  
Wind Chill: 52°   Ceiling: 200
Heat Index: 52°   Visibility: 0.75mi
Dew Point: 49°   Wind: 3mph
Humidity: 89%   Direction: NA
Pressure: 29.83"   Gusts: NA
Location:  30.84°N, 93.02°W
Report Text: KBKB 220854Z AUTO VRB03KT 3/4SM BR VV002 11/09 A2983 RMK AO2 SLP129 T01110094 58018 $
Loading
Personal Weather Stations






























Interactive Weather Map New forecast layout! Learn more

10-Day Weather Forecast

Advertisements
Track Severe Weather on mobile